sensor_id;sensor_type;location;lat;lon;timestamp;temperature;humidity
7218;DHT22;3650;53.580;10.094;2022-11-03T00:01:01;11.40;59.30
7218;DHT22;3650;53.580;10.094;2022-11-03T00:03:28;11.40;59.40
7218;DHT22;3650;53.580;10.094;2022-11-03T00:05:56;11.30;59.10
7218;DHT22;3650;53.580;10.094;2022-11-03T00:08:33;11.30;58.90
7218;DHT22;3650;53.580;10.094;2022-11-03T00:11:03;11.30;59.00
7218;DHT22;3650;53.580;10.094;2022-11-03T00:13:30;11.30;59.10
7218;DHT22;3650;53.580;10.094;2022-11-03T00:15:56;11.30;59.10
7218;DHT22;3650;53.580;10.094;2022-11-03T00:18:23;11.30;59.00
7218;DHT22;3650;53.580;10.094;2022-11-03T00:20:56;11.30;59.10
7218;DHT22;3650;53.580;10.094;2022-11-03T00:23:28;11.30;58.80
7218;DHT22;3650;53.580;10.094;2022-11-03T00:26:02;11.30;58.80
7218;DHT22;3650;53.580;10.094;2022-11-03T00:28:30;11.30;58.80
7218;DHT22;3650;53.580;10.094;2022-11-03T00:30:57;11.30;58.90
7218;DHT22;3650;53.580;10.094;2022-11-03T00:33:24;11.30;58.80
7218;DHT22;3650;53.580;10.094;2022-11-03T00:35:56;11.30;58.80
7218;DHT22;3650;53.580;10.094;2022-11-03T00:38:23;11.30;58.80
7218;DHT22;3650;53.580;10.094;2022-11-03T00:40:54;11.30;58.60
7218;DHT22;3650;53.580;10.094;2022-11-03T00:43:21;11.30;58.80
7218;DHT22;3650;53.580;10.094;2022-11-03T00:45:48;11.30;58.80
7218;DHT22;3650;53.580;10.094;2022-11-03T00:48:15;11.30;58.80
7218;DHT22;3650;53.580;10.094;2022-11-03T00:51:08;11.30;58.90
7218;DHT22;3650;53.580;10.094;2022-11-03T00:53:36;11.30;58.90
7218;DHT22;3650;53.580;10.094;2022-11-03T00:56:04;11.30;58.90
7218;DHT22;3650;53.580;10.094;2022-11-03T00:58:31;11.30;58.70
7218;DHT22;3650;53.580;10.094;2022-11-03T01:01:03;11.30;58.50
7218;DHT22;3650;53.580;10.094;2022-11-03T01:03:33;11.30;58.60
7218;DHT22;3650;53.580;10.094;2022-11-03T01:06:00;11.20;58.70
7218;DHT22;3650;53.580;10.094;2022-11-03T01:09:01;11.20;58.50
7218;DHT22;3650;53.580;10.094;2022-11-03T01:11:28;11.20;58.70
7218;DHT22;3650;53.580;10.094;2022-11-03T01:14:12;11.20;58.60
7218;DHT22;3650;53.580;10.094;2022-11-03T01:16:39;11.30;58.80
7218;DHT22;3650;53.580;10.094;2022-11-03T01:19:06;11.30;58.80
7218;DHT22;3650;53.580;10.094;2022-11-03T01:21:33;11.30;58.70
7218;DHT22;3650;53.580;10.094;2022-11-03T01:24:03;11.20;58.50
7218;DHT22;3650;53.580;10.094;2022-11-03T01:26:30;11.30;58.40
7218;DHT22;3650;53.580;10.094;2022-11-03T01:28:58;11.30;58.20
7218;DHT22;3650;53.580;10.094;2022-11-03T01:31:26;11.30;58.60
7218;DHT22;3650;53.580;10.094;2022-11-03T01:33:54;11.30;58.60
7218;DHT22;3650;53.580;10.094;2022-11-03T01:36:22;11.30;58.40
7218;DHT22;3650;53.580;10.094;2022-11-03T01:38:49;11.20;58.20
7218;DHT22;3650;53.580;10.094;2022-11-03T01:41:19;11.30;58.40
7218;DHT22;3650;53.580;10.094;2022-11-03T01:43:48;11.30;58.00
7218;DHT22;3650;53.580;10.094;2022-11-03T01:46:18;11.20;57.90
7218;DHT22;3650;53.580;10.094;2022-11-03T01:48:48;11.20;57.90
7218;DHT22;3650;53.580;10.094;2022-11-03T01:51:17;11.20;58.20
7218;DHT22;3650;53.580;10.094;2022-11-03T01:53:47;11.20;58.30
7218;DHT22;3650;53.580;10.094;2022-11-03T01:56:17;11.20;58.40
7218;DHT22;3650;53.580;10.094;2022-11-03T01:58:45;11.20;58.50
7218;DHT22;3650;53.580;10.094;2022-11-03T02:01:13;11.20;58.60
7218;DHT22;3650;53.580;10.094;2022-11-03T02:03:43;11.20;59.40
7218;DHT22;3650;53.580;10.094;2022-11-03T02:06:10;11.20;58.30
7218;DHT22;3650;53.580;10.094;2022-11-03T02:08:40;11.20;58.30
7218;DHT22;3650;53.580;10.094;2022-11-03T02:11:09;11.20;58.60
7218;DHT22;3650;53.580;10.094;2022-11-03T02:13:53;11.20;58.50
7218;DHT22;3650;53.580;10.094;2022-11-03T02:16:20;11.20;58.40
7218;DHT22;3650;53.580;10.094;2022-11-03T02:18:49;11.30;58.40
7218;DHT22;3650;53.580;10.094;2022-11-03T02:21:29;11.30;58.50
7218;DHT22;3650;53.580;10.094;2022-11-03T02:24:01;11.20;58.50
7218;DHT22;3650;53.580;10.094;2022-11-03T02:26:31;11.30;58.50
7218;DHT22;3650;53.580;10.094;2022-11-03T02:28:58;11.20;58.40
7218;DHT22;3650;53.580;10.094;2022-11-03T02:31:29;11.30;58.40
7218;DHT22;3650;53.580;10.094;2022-11-03T02:34:04;11.20;58.40
7218;DHT22;3650;53.580;10.094;2022-11-03T02:36:36;11.30;58.60
7218;DHT22;3650;53.580;10.094;2022-11-03T02:39:10;11.30;58.30
7218;DHT22;3650;53.580;10.094;2022-11-03T02:41:41;11.30;58.30
7218;DHT22;3650;53.580;10.094;2022-11-03T02:44:13;11.30;58.40
7218;DHT22;3650;53.580;10.094;2022-11-03T02:46:42;11.30;58.70
7218;DHT22;3650;53.580;10.094;2022-11-03T02:49:09;11.30;58.60
7218;DHT22;3650;53.580;10.094;2022-11-03T02:51:36;11.30;58.90
7218;DHT22;3650;53.580;10.094;2022-11-03T02:54:07;11.30;58.90
7218;DHT22;3650;53.580;10.094;2022-11-03T02:56:41;11.20;58.70
7218;DHT22;3650;53.580;10.094;2022-11-03T02:59:12;11.30;58.80
7218;DHT22;3650;53.580;10.094;2022-11-03T03:01:43;11.30;58.80
7218;DHT22;3650;53.580;10.094;2022-11-03T03:04:15;11.30;58.80
7218;DHT22;3650;53.580;10.094;2022-11-03T03:06:47;11.30;59.10
7218;DHT22;3650;53.580;10.094;2022-11-03T03:09:19;11.30;58.90
7218;DHT22;3650;53.580;10.094;2022-11-03T03:11:48;11.30;59.00
7218;DHT22;3650;53.580;10.094;2022-11-03T03:14:19;11.30;58.90
7218;DHT22;3650;53.580;10.094;2022-11-03T03:16:54;11.30;59.00
7218;DHT22;3650;53.580;10.094;2022-11-03T03:19:37;11.30;59.10
7218;DHT22;3650;53.580;10.094;2022-11-03T03:22:11;11.30;59.00
7218;DHT22;3650;53.580;10.094;2022-11-03T03:24:48;11.30;59.10
7218;DHT22;3650;53.580;10.094;2022-11-03T03:27:18;11.30;59.00
7218;DHT22;3650;53.580;10.094;2022-11-03T03:29:50;11.30;59.00
7218;DHT22;3650;53.580;10.094;2022-11-03T03:32:21;11.30;58.90
7218;DHT22;3650;53.580;10.094;2022-11-03T03:34:49;11.30;58.80
7218;DHT22;3650;53.580;10.094;2022-11-03T03:37:18;11.40;59.20
7218;DHT22;3650;53.580;10.094;2022-11-03T03:39:50;11.40;59.10
7218;DHT22;3650;53.580;10.094;2022-11-03T03:42:19;11.40;59.00
7218;DHT22;3650;53.580;10.094;2022-11-03T03:44:49;11.40;58.80
7218;DHT22;3650;53.580;10.094;2022-11-03T03:47:19;11.40;58.90
7218;DHT22;3650;53.580;10.094;2022-11-03T03:49:47;11.40;58.80
7218;DHT22;3650;53.580;10.094;2022-11-03T03:52:15;11.40;58.80
7218;DHT22;3650;53.580;10.094;2022-11-03T03:54:42;11.40;58.70
7218;DHT22;3650;53.580;10.094;2022-11-03T03:57:11;11.40;58.80
7218;DHT22;3650;53.580;10.094;2022-11-03T03:59:40;11.40;59.00
7218;DHT22;3650;53.580;10.094;2022-11-03T04:02:08;11.40;58.70
7218;DHT22;3650;53.580;10.094;2022-11-03T04:04:35;11.40;58.70
7218;DHT22;3650;53.580;10.094;2022-11-03T04:07:02;11.40;58.50
7218;DHT22;3650;53.580;10.094;2022-11-03T04:09:46;11.40;58.60
7218;DHT22;3650;53.580;10.094;2022-11-03T04:12:13;11.40;58.90
7218;DHT22;3650;53.580;10.094;2022-11-03T04:14:57;11.40;60.10
7218;DHT22;3650;53.580;10.094;2022-11-03T04:17:45;11.40;58.90
7218;DHT22;3650;53.580;10.094;2022-11-03T04:20:29;11.40;60.30
7218;DHT22;3650;53.580;10.094;2022-11-03T04:23:14;11.50;59.30
7218;DHT22;3650;53.580;10.094;2022-11-03T04:25:42;11.40;59.20
7218;DHT22;3650;53.580;10.094;2022-11-03T04:28:14;11.40;59.40
7218;DHT22;3650;53.580;10.094;2022-11-03T04:30:41;11.40;59.60
7218;DHT22;3650;53.580;10.094;2022-11-03T04:33:12;11.40;59.40
7218;DHT22;3650;53.580;10.094;2022-11-03T04:35:40;11.40;59.60
7218;DHT22;3650;53.580;10.094;2022-11-03T04:38:19;11.40;59.70
7218;DHT22;3650;53.580;10.094;2022-11-03T04:40:48;11.40;59.80
7218;DHT22;3650;53.580;10.094;2022-11-03T04:43:18;11.40;59.70
7218;DHT22;3650;53.580;10.094;2022-11-03T04:45:46;11.40;59.60
7218;DHT22;3650;53.580;10.094;2022-11-03T04:48:18;11.40;59.60
7218;DHT22;3650;53.580;10.094;2022-11-03T04:50:48;11.40;59.70
7218;DHT22;3650;53.580;10.094;2022-11-03T04:53:17;11.40;60.00
7218;DHT22;3650;53.580;10.094;2022-11-03T04:55:45;11.30;59.90
7218;DHT22;3650;53.580;10.094;2022-11-03T04:58:19;11.40;59.90
7218;DHT22;3650;53.580;10.094;2022-11-03T05:00:46;11.40;60.00
7218;DHT22;3650;53.580;10.094;2022-11-03T05:03:19;11.40;59.90
7218;DHT22;3650;53.580;10.094;2022-11-03T05:05:47;11.40;60.50
7218;DHT22;3650;53.580;10.094;2022-11-03T05:08:15;11.40;60.60
7218;DHT22;3650;53.580;10.094;2022-11-03T05:10:43;11.40;60.60
7218;DHT22;3650;53.580;10.094;2022-11-03T05:13:15;11.50;61.00
7218;DHT22;3650;53.580;10.094;2022-11-03T05:15:44;11.50;61.30
7218;DHT22;3650;53.580;10.094;2022-11-03T05:18:16;11.50;61.20
7218;DHT22;3650;53.580;10.094;2022-11-03T05:20:48;11.50;60.50
7218;DHT22;3650;53.580;10.094;2022-11-03T05:23:17;11.50;60.00
7218;DHT22;3650;53.580;10.094;2022-11-03T05:25:46;11.40;59.90
7218;DHT22;3650;53.580;10.094;2022-11-03T05:28:20;11.40;60.00
7218;DHT22;3650;53.580;10.094;2022-11-03T05:30:48;11.40;60.20
7218;DHT22;3650;53.580;10.094;2022-11-03T05:33:21;11.40;60.00
7218;DHT22;3650;53.580;10.094;2022-11-03T05:35:51;11.40;60.70
7218;DHT22;3650;53.580;10.094;2022-11-03T05:38:19;11.40;61.00
7218;DHT22;3650;53.580;10.094;2022-11-03T05:40:49;11.40;60.80
7218;DHT22;3650;53.580;10.094;2022-11-03T05:43:17;11.40;60.60
7218;DHT22;3650;53.580;10.094;2022-11-03T05:45:45;11.40;60.50
7218;DHT22;3650;53.580;10.094;2022-11-03T05:48:17;11.40;60.70
7218;DHT22;3650;53.580;10.094;2022-11-03T05:50:46;11.30;60.60
7218;DHT22;3650;53.580;10.094;2022-11-03T05:53:26;11.30;60.50
7218;DHT22;3650;53.580;10.094;2022-11-03T05:55:53;11.30;60.80
7218;DHT22;3650;53.580;10.094;2022-11-03T05:58:23;11.30;61.30
7218;DHT22;3650;53.580;10.094;2022-11-03T06:00:51;11.30;61.40
7218;DHT22;3650;53.580;10.094;2022-11-03T06:03:22;11.30;61.40
7218;DHT22;3650;53.580;10.094;2022-11-03T06:05:51;11.40;61.20
7218;DHT22;3650;53.580;10.094;2022-11-03T06:08:20;11.30;61.10
7218;DHT22;3650;53.580;10.094;2022-11-03T06:10:49;11.30;61.10
7218;DHT22;3650;53.580;10.094;2022-11-03T06:13:19;11.30;61.30
7218;DHT22;3650;53.580;10.094;2022-11-03T06:15:54;11.30;61.40
7218;DHT22;3650;53.580;10.094;2022-11-03T06:18:23;11.20;61.50
7218;DHT22;3650;53.580;10.094;2022-11-03T06:20:54;11.30;61.70
7218;DHT22;3650;53.580;10.094;2022-11-03T06:23:22;11.30;61.90
7218;DHT22;3650;53.580;10.094;2022-11-03T06:25:52;11.20;62.00
7218;DHT22;3650;53.580;10.094;2022-11-03T06:28:21;11.20;62.30
7218;DHT22;3650;53.580;10.094;2022-11-03T06:30:50;11.20;62.60
7218;DHT22;3650;53.580;10.094;2022-11-03T06:33:18;11.20;62.60
7218;DHT22;3650;53.580;10.094;2022-11-03T06:35:47;11.20;62.70
7218;DHT22;3650;53.580;10.094;2022-11-03T06:38:18;11.20;62.70
7218;DHT22;3650;53.580;10.094;2022-11-03T06:40:48;11.20;62.70
7218;DHT22;3650;53.580;10.094;2022-11-03T06:43:19;11.20;62.70
7218;DHT22;3650;53.580;10.094;2022-11-03T06:45:52;11.20;62.70
7218;DHT22;3650;53.580;10.094;2022-11-03T06:48:23;11.20;62.70
7218;DHT22;3650;53.580;10.094;2022-11-03T06:50:50;11.20;62.80
7218;DHT22;3650;53.580;10.094;2022-11-03T06:53:22;11.20;63.10
7218;DHT22;3650;53.580;10.094;2022-11-03T06:55:49;11.20;63.00
7218;DHT22;3650;53.580;10.094;2022-11-03T06:58:22;11.20;63.20
7218;DHT22;3650;53.580;10.094;2022-11-03T07:00:49;11.20;63.40
7218;DHT22;3650;53.580;10.094;2022-11-03T07:03:20;11.30;63.70
7218;DHT22;3650;53.580;10.094;2022-11-03T07:05:48;11.30;63.80
7218;DHT22;3650;53.580;10.094;2022-11-03T07:08:22;11.30;63.90
7218;DHT22;3650;53.580;10.094;2022-11-03T07:10:55;11.30;63.40
7218;DHT22;3650;53.580;10.094;2022-11-03T07:13:23;11.30;63.70
7218;DHT22;3650;53.580;10.094;2022-11-03T07:15:51;11.30;63.60
7218;DHT22;3650;53.580;10.094;2022-11-03T07:18:22;11.30;63.70
7218;DHT22;3650;53.580;10.094;2022-11-03T07:20:49;11.30;63.90
7218;DHT22;3650;53.580;10.094;2022-11-03T07:23:19;11.30;63.70
7218;DHT22;3650;53.580;10.094;2022-11-03T07:25:50;11.30;63.40
7218;DHT22;3650;53.580;10.094;2022-11-03T07:28:17;11.30;63.30
7218;DHT22;3650;53.580;10.094;2022-11-03T07:30:44;11.40;63.40
7218;DHT22;3650;53.580;10.094;2022-11-03T07:33:15;11.30;63.50
7218;DHT22;3650;53.580;10.094;2022-11-03T07:35:43;11.30;63.80
7218;DHT22;3650;53.580;10.094;2022-11-03T07:38:12;11.40;64.10
7218;DHT22;3650;53.580;10.094;2022-11-03T07:40:39;11.40;64.10
7218;DHT22;3650;53.580;10.094;2022-11-03T07:43:15;11.30;63.80
7218;DHT22;3650;53.580;10.094;2022-11-03T07:45:44;11.40;63.90
7218;DHT22;3650;53.580;10.094;2022-11-03T07:48:22;11.40;63.80
7218;DHT22;3650;53.580;10.094;2022-11-03T07:50:52;11.30;64.10
7218;DHT22;3650;53.580;10.094;2022-11-03T07:53:27;11.40;64.50
7218;DHT22;3650;53.580;10.094;2022-11-03T07:55:54;11.40;64.70
7218;DHT22;3650;53.580;10.094;2022-11-03T07:58:34;11.40;65.00
7218;DHT22;3650;53.580;10.094;2022-11-03T08:01:03;11.40;65.10
7218;DHT22;3650;53.580;10.094;2022-11-03T08:03:43;11.40;65.10
7218;DHT22;3650;53.580;10.094;2022-11-03T08:06:11;11.40;65.40
7218;DHT22;3650;53.580;10.094;2022-11-03T08:08:38;11.40;65.70
7218;DHT22;3650;53.580;10.094;2022-11-03T08:11:05;11.40;65.80
7218;DHT22;3650;53.580;10.094;2022-11-03T08:13:33;11.50;66.00
7218;DHT22;3650;53.580;10.094;2022-11-03T08:16:00;11.50;66.20
7218;DHT22;3650;53.580;10.094;2022-11-03T08:18:27;11.50;66.30
7218;DHT22;3650;53.580;10.094;2022-11-03T08:20:54;11.50;66.50
7218;DHT22;3650;53.580;10.094;2022-11-03T08:23:20;11.50;66.60
7218;DHT22;3650;53.580;10.094;2022-11-03T08:25:47;11.50;66.50
7218;DHT22;3650;53.580;10.094;2022-11-03T08:28:14;11.60;66.70
7218;DHT22;3650;53.580;10.094;2022-11-03T08:30:42;11.60;66.90
7218;DHT22;3650;53.580;10.094;2022-11-03T08:33:09;11.60;66.70
7218;DHT22;3650;53.580;10.094;2022-11-03T08:35:36;11.60;67.00
7218;DHT22;3650;53.580;10.094;2022-11-03T08:38:03;11.60;67.20
7218;DHT22;3650;53.580;10.094;2022-11-03T08:40:29;11.70;67.20
7218;DHT22;3650;53.580;10.094;2022-11-03T08:42:56;11.70;67.40
7218;DHT22;3650;53.580;10.094;2022-11-03T08:45:24;11.80;67.50
7218;DHT22;3650;53.580;10.094;2022-11-03T08:47:52;11.70;67.50
7218;DHT22;3650;53.580;10.094;2022-11-03T08:50:19;11.80;67.70
7218;DHT22;3650;53.580;10.094;2022-11-03T08:52:46;11.80;67.60
7218;DHT22;3650;53.580;10.094;2022-11-03T08:55:14;11.80;67.50
7218;DHT22;3650;53.580;10.094;2022-11-03T08:57:41;11.80;67.80
7218;DHT22;3650;53.580;10.094;2022-11-03T09:00:09;11.90;68.00
7218;DHT22;3650;53.580;10.094;2022-11-03T09:02:36;11.90;67.80
7218;DHT22;3650;53.580;10.094;2022-11-03T09:05:05;11.90;67.90
7218;DHT22;3650;53.580;10.094;2022-11-03T09:07:32;11.90;67.50
7218;DHT22;3650;53.580;10.094;2022-11-03T09:09:59;12.00;67.90
7218;DHT22;3650;53.580;10.094;2022-11-03T09:12:25;12.00;68.20
7218;DHT22;3650;53.580;10.094;2022-11-03T09:14:52;12.00;67.50
7218;DHT22;3650;53.580;10.094;2022-11-03T09:17:19;12.10;67.80
7218;DHT22;3650;53.580;10.094;2022-11-03T09:19:46;12.20;68.20
7218;DHT22;3650;53.580;10.094;2022-11-03T09:22:14;12.10;68.20
7218;DHT22;3650;53.580;10.094;2022-11-03T09:24:40;12.10;68.30
7218;DHT22;3650;53.580;10.094;2022-11-03T09:27:07;12.20;68.30
7218;DHT22;3650;53.580;10.094;2022-11-03T09:29:34;12.20;68.20
7218;DHT22;3650;53.580;10.094;2022-11-03T09:32:01;12.20;68.10
7218;DHT22;3650;53.580;10.094;2022-11-03T09:34:28;12.30;68.20
7218;DHT22;3650;53.580;10.094;2022-11-03T09:36:55;12.30;68.00
7218;DHT22;3650;53.580;10.094;2022-11-03T09:39:24;12.30;67.90
7218;DHT22;3650;53.580;10.094;2022-11-03T09:41:51;12.40;67.80
7218;DHT22;3650;53.580;10.094;2022-11-03T09:44:18;12.40;67.80
7218;DHT22;3650;53.580;10.094;2022-11-03T09:46:45;12.40;67.80
7218;DHT22;3650;53.580;10.094;2022-11-03T09:49:13;12.40;67.70
7218;DHT22;3650;53.580;10.094;2022-11-03T09:51:41;12.50;68.10
7218;DHT22;3650;53.580;10.094;2022-11-03T09:54:11;12.50;68.20
7218;DHT22;3650;53.580;10.094;2022-11-03T09:56:41;12.50;67.80
7218;DHT22;3650;53.580;10.094;2022-11-03T09:59:16;12.60;68.00
7218;DHT22;3650;53.580;10.094;2022-11-03T10:01:44;12.60;67.80
7218;DHT22;3650;53.580;10.094;2022-11-03T10:04:14;12.60;67.50
7218;DHT22;3650;53.580;10.094;2022-11-03T10:06:41;12.70;67.50
7218;DHT22;3650;53.580;10.094;2022-11-03T10:09:12;12.70;67.50
7218;DHT22;3650;53.580;10.094;2022-11-03T10:11:42;12.70;67.50
7218;DHT22;3650;53.580;10.094;2022-11-03T10:14:12;12.70;67.00
7218;DHT22;3650;53.580;10.094;2022-11-03T10:16:40;12.80;66.90
7218;DHT22;3650;53.580;10.094;2022-11-03T10:19:11;12.80;66.70
7218;DHT22;3650;53.580;10.094;2022-11-03T10:21:38;12.80;66.80
7218;DHT22;3650;53.580;10.094;2022-11-03T10:24:09;12.90;66.90
7218;DHT22;3650;53.580;10.094;2022-11-03T10:26:44;12.90;67.20
7218;DHT22;3650;53.580;10.094;2022-11-03T10:29:17;12.90;67.40
7218;DHT22;3650;53.580;10.094;2022-11-03T10:31:48;13.00;67.30
7218;DHT22;3650;53.580;10.094;2022-11-03T10:34:24;13.00;67.30
7218;DHT22;3650;53.580;10.094;2022-11-03T10:37:15;13.10;67.50
7218;DHT22;3650;53.580;10.094;2022-11-03T10:39:46;13.10;67.50
7218;DHT22;3650;53.580;10.094;2022-11-03T10:42:19;13.10;67.40
7218;DHT22;3650;53.580;10.094;2022-11-03T10:44:47;13.10;67.10
7218;DHT22;3650;53.580;10.094;2022-11-03T10:47:24;13.20;66.70
7218;DHT22;3650;53.580;10.094;2022-11-03T10:49:51;13.20;66.30
7218;DHT22;3650;53.580;10.094;2022-11-03T10:52:21;13.20;66.40
7218;DHT22;3650;53.580;10.094;2022-11-03T10:54:49;13.30;66.30
7218;DHT22;3650;53.580;10.094;2022-11-03T10:57:18;13.30;66.10
7218;DHT22;3650;53.580;10.094;2022-11-03T10:59:47;13.30;66.00
7218;DHT22;3650;53.580;10.094;2022-11-03T11:02:17;13.30;66.10
7218;DHT22;3650;53.580;10.094;2022-11-03T11:04:45;13.40;66.20
7218;DHT22;3650;53.580;10.094;2022-11-03T11:07:21;13.40;66.20
7218;DHT22;3650;53.580;10.094;2022-11-03T11:09:49;13.50;66.10
7218;DHT22;3650;53.580;10.094;2022-11-03T11:12:20;13.50;65.70
7218;DHT22;3650;53.580;10.094;2022-11-03T11:14:55;13.50;65.70
7218;DHT22;3650;53.580;10.094;2022-11-03T11:17:44;13.60;65.40
7218;DHT22;3650;53.580;10.094;2022-11-03T11:20:29;13.60;65.00
7218;DHT22;3650;53.580;10.094;2022-11-03T11:26:17;13.70;65.00
7218;DHT22;3650;53.580;10.094;2022-11-03T11:38:43;13.80;64.30
7218;DHT22;3650;53.580;10.094;2022-11-03T11:41:10;13.90;64.30
7218;DHT22;3650;53.580;10.094;2022-11-03T11:43:38;13.90;64.10
7218;DHT22;3650;53.580;10.094;2022-11-03T11:46:37;13.90;64.10
7218;DHT22;3650;53.580;10.094;2022-11-03T11:49:16;13.90;64.00
7218;DHT22;3650;53.580;10.094;2022-11-03T11:51:42;13.90;64.00
7218;DHT22;3650;53.580;10.094;2022-11-03T11:54:13;14.00;64.10
7218;DHT22;3650;53.580;10.094;2022-11-03T11:56:42;14.00;64.10
7218;DHT22;3650;53.580;10.094;2022-11-03T11:59:17;14.00;64.20
7218;DHT22;3650;53.580;10.094;2022-11-03T12:01:48;14.00;64.30
7218;DHT22;3650;53.580;10.094;2022-11-03T12:04:19;14.10;64.20
7218;DHT22;3650;53.580;10.094;2022-11-03T12:06:46;14.10;64.00
7218;DHT22;3650;53.580;10.094;2022-11-03T12:09:16;14.10;63.90
7218;DHT22;3650;53.580;10.094;2022-11-03T12:11:46;14.10;63.80
7218;DHT22;3650;53.580;10.094;2022-11-03T12:14:32;14.20;63.50
7218;DHT22;3650;53.580;10.094;2022-11-03T12:17:32;14.20;63.10
7218;DHT22;3650;53.580;10.094;2022-11-03T12:19:59;14.20;62.90
7218;DHT22;3650;53.580;10.094;2022-11-03T12:22:40;14.20;62.70
7218;DHT22;3650;53.580;10.094;2022-11-03T12:25:32;14.30;62.60
7218;DHT22;3650;53.580;10.094;2022-11-03T12:28:00;14.30;62.30
7218;DHT22;3650;53.580;10.094;2022-11-03T12:30:27;14.30;61.90
7218;DHT22;3650;53.580;10.094;2022-11-03T12:32:55;14.30;61.90
7218;DHT22;3650;53.580;10.094;2022-11-03T12:35:22;14.30;61.70
7218;DHT22;3650;53.580;10.094;2022-11-03T12:37:48;14.30;61.80
7218;DHT22;3650;53.580;10.094;2022-11-03T12:40:15;14.40;61.80
7218;DHT22;3650;53.580;10.094;2022-11-03T12:42:42;14.40;61.80
7218;DHT22;3650;53.580;10.094;2022-11-03T12:45:10;14.40;61.60
7218;DHT22;3650;53.580;10.094;2022-11-03T12:47:38;14.40;61.50
7218;DHT22;3650;53.580;10.094;2022-11-03T12:50:06;14.40;61.00
7218;DHT22;3650;53.580;10.094;2022-11-03T12:52:33;14.50;61.20
7218;DHT22;3650;53.580;10.094;2022-11-03T12:55:00;14.50;61.20
7218;DHT22;3650;53.580;10.094;2022-11-03T12:57:26;14.50;61.10
7218;DHT22;3650;53.580;10.094;2022-11-03T12:59:53;14.50;61.20
7218;DHT22;3650;53.580;10.094;2022-11-03T13:02:20;14.50;61.00
7218;DHT22;3650;53.580;10.094;2022-11-03T13:04:47;14.60;61.00
7218;DHT22;3650;53.580;10.094;2022-11-03T13:07:15;14.50;60.80
7218;DHT22;3650;53.580;10.094;2022-11-03T13:09:41;14.60;60.80
7218;DHT22;3650;53.580;10.094;2022-11-03T13:12:11;14.50;60.60
7218;DHT22;3650;53.580;10.094;2022-11-03T13:14:56;14.60;60.40
7218;DHT22;3650;53.580;10.094;2022-11-03T13:17:23;14.60;60.40
7218;DHT22;3650;53.580;10.094;2022-11-03T13:19:50;14.60;60.30
7218;DHT22;3650;53.580;10.094;2022-11-03T13:22:18;14.60;60.30
7218;DHT22;3650;53.580;10.094;2022-11-03T13:24:45;14.60;60.20
7218;DHT22;3650;53.580;10.094;2022-11-03T13:27:12;14.60;60.30
7218;DHT22;3650;53.580;10.094;2022-11-03T13:29:39;14.60;60.30
7218;DHT22;3650;53.580;10.094;2022-11-03T13:32:07;14.60;60.30
7218;DHT22;3650;53.580;10.094;2022-11-03T13:34:33;14.60;60.30
7218;DHT22;3650;53.580;10.094;2022-11-03T13:37:00;14.60;60.10
7218;DHT22;3650;53.580;10.094;2022-11-03T13:39:28;14.70;60.20
7218;DHT22;3650;53.580;10.094;2022-11-03T13:41:55;14.70;60.20
7218;DHT22;3650;53.580;10.094;2022-11-03T13:44:22;14.60;60.30
7218;DHT22;3650;53.580;10.094;2022-11-03T13:46:49;14.60;60.30
7218;DHT22;3650;53.580;10.094;2022-11-03T13:49:17;14.60;60.30
7218;DHT22;3650;53.580;10.094;2022-11-03T13:51:45;14.70;60.40
7218;DHT22;3650;53.580;10.094;2022-11-03T13:54:12;14.70;60.40
7218;DHT22;3650;53.580;10.094;2022-11-03T13:56:40;14.60;60.30
7218;DHT22;3650;53.580;10.094;2022-11-03T13:59:07;14.60;60.50
7218;DHT22;3650;53.580;10.094;2022-11-03T14:01:34;14.60;60.60
7218;DHT22;3650;53.580;10.094;2022-11-03T14:04:00;14.70;60.70
7218;DHT22;3650;53.580;10.094;2022-11-03T14:06:27;14.70;60.90
7218;DHT22;3650;53.580;10.094;2022-11-03T14:08:54;14.70;61.00
7218;DHT22;3650;53.580;10.094;2022-11-03T14:11:20;14.60;61.10
7218;DHT22;3650;53.580;10.094;2022-11-03T14:14:06;14.60;61.30
7218;DHT22;3650;53.580;10.094;2022-11-03T14:16:33;14.70;61.60
7218;DHT22;3650;53.580;10.094;2022-11-03T14:19:00;14.60;61.70
7218;DHT22;3650;53.580;10.094;2022-11-03T14:21:27;14.60;61.90
7218;DHT22;3650;53.580;10.094;2022-11-03T14:23:53;14.60;62.10
7218;DHT22;3650;53.580;10.094;2022-11-03T14:26:20;14.60;62.30
7218;DHT22;3650;53.580;10.094;2022-11-03T14:28:47;14.60;62.40
7218;DHT22;3650;53.580;10.094;2022-11-03T14:31:15;14.60;62.50
7218;DHT22;3650;53.580;10.094;2022-11-03T14:33:41;14.60;62.60
7218;DHT22;3650;53.580;10.094;2022-11-03T14:36:08;14.60;62.80
7218;DHT22;3650;53.580;10.094;2022-11-03T14:38:35;14.60;63.00
7218;DHT22;3650;53.580;10.094;2022-11-03T14:41:02;14.70;63.10
7218;DHT22;3650;53.580;10.094;2022-11-03T14:43:46;14.60;63.20
7218;DHT22;3650;53.580;10.094;2022-11-03T14:46:14;14.60;63.50
7218;DHT22;3650;53.580;10.094;2022-11-03T14:48:41;14.60;63.70
7218;DHT22;3650;53.580;10.094;2022-11-03T14:51:08;14.60;64.00
7218;DHT22;3650;53.580;10.094;2022-11-03T14:53:35;14.60;64.30
7218;DHT22;3650;53.580;10.094;2022-11-03T14:56:01;14.60;64.50
7218;DHT22;3650;53.580;10.094;2022-11-03T14:58:28;14.60;64.80
7218;DHT22;3650;53.580;10.094;2022-11-03T15:00:55;14.60;64.90
7218;DHT22;3650;53.580;10.094;2022-11-03T15:03:23;14.60;65.10
7218;DHT22;3650;53.580;10.094;2022-11-03T15:05:50;14.60;65.30
7218;DHT22;3650;53.580;10.094;2022-11-03T15:08:18;14.60;65.70
7218;DHT22;3650;53.580;10.094;2022-11-03T15:10:45;14.60;65.70
7218;DHT22;3650;53.580;10.094;2022-11-03T15:13:12;14.60;65.80
7218;DHT22;3650;53.580;10.094;2022-11-03T15:15:39;14.60;65.80
7218;DHT22;3650;53.580;10.094;2022-11-03T15:18:07;14.60;65.80
7218;DHT22;3650;53.580;10.094;2022-11-03T15:20:35;14.60;65.80
7218;DHT22;3650;53.580;10.094;2022-11-03T15:23:02;14.60;65.80
7218;DHT22;3650;53.580;10.094;2022-11-03T15:25:29;14.60;65.80
7218;DHT22;3650;53.580;10.094;2022-11-03T15:27:56;14.50;65.70
7218;DHT22;3650;53.580;10.094;2022-11-03T15:30:22;14.60;65.80
7218;DHT22;3650;53.580;10.094;2022-11-03T15:32:49;14.50;65.70
7218;DHT22;3650;53.580;10.094;2022-11-03T15:35:16;14.50;65.70
7218;DHT22;3650;53.580;10.094;2022-11-03T15:37:44;14.50;65.70
7218;DHT22;3650;53.580;10.094;2022-11-03T15:40:12;14.60;65.80
7218;DHT22;3650;53.580;10.094;2022-11-03T15:42:39;14.50;65.70
7218;DHT22;3650;53.580;10.094;2022-11-03T15:45:08;14.50;65.70
7218;DHT22;3650;53.580;10.094;2022-11-03T15:47:35;14.50;65.70
7218;DHT22;3650;53.580;10.094;2022-11-03T15:50:03;14.50;65.70
7218;DHT22;3650;53.580;10.094;2022-11-03T15:52:30;14.50;65.70
7218;DHT22;3650;53.580;10.094;2022-11-03T15:54:58;14.50;66.10
7218;DHT22;3650;53.580;10.094;2022-11-03T15:57:25;14.40;65.80
7218;DHT22;3650;53.580;10.094;2022-11-03T15:59:52;14.40;66.00
7218;DHT22;3650;53.580;10.094;2022-11-03T16:02:19;14.40;66.10
7218;DHT22;3650;53.580;10.094;2022-11-03T16:04:45;14.40;66.10
7218;DHT22;3650;53.580;10.094;2022-11-03T16:07:13;14.40;66.20
7218;DHT22;3650;53.580;10.094;2022-11-03T16:09:39;14.40;66.20
7218;DHT22;3650;53.580;10.094;2022-11-03T16:12:08;14.40;66.30
7218;DHT22;3650;53.580;10.094;2022-11-03T16:14:34;14.40;66.60